createdAt,value
2023-04-16T00:00:40.271Z,9
2023-04-16T00:03:28.115Z,17
2023-04-16T00:06:16.575Z,15
2023-04-16T00:09:04.110Z,21
2023-04-16T00:11:51.792Z,17
2023-04-16T00:14:39.517Z,19
2023-04-16T00:17:27.302Z,17
2023-04-16T00:20:15.343Z,13
2023-04-16T00:23:02.971Z,17
2023-04-16T00:25:50.546Z,23
2023-04-16T00:28:38.138Z,13
2023-04-16T00:31:26.015Z,32
2023-04-16T00:34:13.836Z,10
2023-04-16T00:37:01.549Z,16
2023-04-16T00:39:49.213Z,21
2023-04-16T00:42:36.735Z,24
2023-04-16T00:45:24.628Z,13
2023-04-16T00:48:12.451Z,16
2023-04-16T00:51:00.115Z,17
2023-04-16T00:53:47.838Z,20
2023-04-16T00:56:35.620Z,28
2023-04-16T00:59:23.128Z,16
2023-04-16T01:02:11.077Z,22
2023-04-16T01:04:59.356Z,19
2023-04-16T01:07:47.017Z,23
2023-04-16T01:10:34.771Z,24
2023-04-16T01:13:22.469Z,17
2023-04-16T01:16:10.107Z,22
2023-04-16T01:18:57.863Z,17
2023-04-16T01:21:45.547Z,20
2023-04-16T01:24:33.210Z,16
2023-04-16T01:27:21.012Z,8
2023-04-16T01:30:08.748Z,21
2023-04-16T01:32:56.430Z,16
2023-04-16T01:35:44.256Z,24
2023-04-16T01:38:31.905Z,20
2023-04-16T01:41:19.695Z,8
2023-04-16T01:44:07.402Z,20
2023-04-16T01:46:55.200Z,23
2023-04-16T01:49:43.024Z,18
2023-04-16T01:52:30.759Z,19
2023-04-16T01:55:18.445Z,21
2023-04-16T01:58:06.135Z,18
2023-04-16T02:00:53.919Z,16
2023-04-16T02:03:42.120Z,21
2023-04-16T02:06:30.342Z,21
2023-04-16T02:09:18.166Z,10
2023-04-16T02:12:05.848Z,10
2023-04-16T02:14:53.721Z,12
2023-04-16T02:17:41.441Z,17
2023-04-16T02:20:29.145Z,9
2023-04-16T02:23:16.878Z,25
2023-04-16T02:26:04.503Z,21
2023-04-16T02:28:52.133Z,14
2023-04-16T02:31:39.965Z,18
2023-04-16T02:34:28.262Z,22
2023-04-16T02:37:16.098Z,15
2023-04-16T02:40:03.788Z,19
2023-04-16T02:42:51.660Z,20
2023-04-16T02:45:39.306Z,20
2023-04-16T02:48:27.442Z,16
2023-04-16T02:51:15.275Z,18
2023-04-16T02:54:03.080Z,17
2023-04-16T02:56:50.682Z,23
2023-04-16T02:59:38.498Z,20
2023-04-16T03:02:26.157Z,16
2023-04-16T03:05:14.515Z,9
2023-04-16T03:08:02.430Z,21
2023-04-16T03:10:50.246Z,21
2023-04-16T03:13:38.049Z,17
2023-04-16T03:16:25.769Z,19
2023-04-16T03:19:13.353Z,18
2023-04-16T03:22:01.272Z,18
2023-04-16T03:24:48.975Z,23
2023-04-16T03:27:36.714Z,20
2023-04-16T03:30:24.303Z,27
2023-04-16T03:33:12.221Z,19
2023-04-16T03:35:59.902Z,8
2023-04-16T03:38:47.709Z,19
2023-04-16T03:41:35.282Z,18
2023-04-16T03:44:23.200Z,20
2023-04-16T03:47:10.987Z,23
2023-04-16T03:49:58.827Z,17
2023-04-16T03:52:46.398Z,23
2023-04-16T03:55:34.051Z,26
2023-04-16T03:58:21.817Z,23
2023-04-16T04:01:09.599Z,23
2023-04-16T04:03:57.452Z,25
2023-04-16T04:06:45.745Z,26
2023-04-16T04:09:33.455Z,31
2023-04-16T04:12:21.471Z,29
2023-04-16T04:15:09.286Z,45
2023-04-16T04:17:56.919Z,49
2023-04-16T04:20:44.648Z,56
2023-04-16T04:23:32.477Z,69
2023-04-16T04:26:20.095Z,75
2023-04-16T04:29:07.937Z,103
2023-04-16T04:31:55.974Z,123
2023-04-16T04:34:43.963Z,149
2023-04-16T04:37:31.675Z,179
2023-04-16T04:40:19.342Z,207
2023-04-16T04:43:07.109Z,233
2023-04-16T04:45:54.924Z,291
2023-04-16T04:48:42.881Z,304
2023-04-16T04:51:31.226Z,361
2023-04-16T04:54:19.009Z,406
2023-04-16T04:57:06.686Z,460
2023-04-16T04:59:54.371Z,489
2023-04-16T05:02:42.235Z,501
2023-04-16T05:05:30.417Z,536
2023-04-16T05:08:18.182Z,546
2023-04-16T05:11:05.778Z,573
2023-04-16T05:13:53.601Z,590
2023-04-16T05:16:41.320Z,595
2023-04-16T05:19:29.035Z,592
2023-04-16T05:22:16.849Z,623
2023-04-16T05:25:04.634Z,641
2023-04-16T05:27:52.259Z,628
2023-04-16T05:30:40.068Z,680
2023-04-16T05:33:28.084Z,650
2023-04-16T05:36:15.889Z,648
2023-04-16T05:39:03.638Z,662
2023-04-16T05:41:51.423Z,683
2023-04-16T05:44:39.085Z,666
2023-04-16T05:47:26.874Z,697
2023-04-16T05:50:14.761Z,730
2023-04-16T05:53:02.748Z,728
2023-04-16T05:55:50.547Z,741
2023-04-16T05:58:38.235Z,744
2023-04-16T06:01:26.110Z,774
2023-04-16T06:04:13.978Z,740
2023-04-16T06:07:01.779Z,764
2023-04-16T06:09:49.600Z,786
2023-04-16T06:12:37.295Z,780
2023-04-16T06:15:25.033Z,745
2023-04-16T06:18:12.757Z,761
2023-04-16T06:21:00.486Z,818
2023-04-16T06:23:48.172Z,837
2023-04-16T06:26:36.030Z,824
2023-04-16T06:29:30.640Z,833
2023-04-16T06:32:24.693Z,830
2023-04-16T06:35:12.459Z,842
2023-04-16T06:38:00.253Z,857
2023-04-16T06:40:48.026Z,860
2023-04-16T06:43:35.732Z,848
2023-04-16T06:46:23.549Z,831
2023-04-16T06:49:11.692Z,811
2023-04-16T06:51:59.522Z,820
2023-04-16T06:54:47.200Z,809
2023-04-16T06:57:36.924Z,839
2023-04-16T07:00:25.217Z,847
2023-04-16T07:03:13.188Z,868
2023-04-16T07:06:01.552Z,896
2023-04-16T07:08:49.337Z,861
2023-04-16T07:11:37.129Z,846
2023-04-16T07:14:24.808Z,880
2023-04-16T07:17:12.527Z,903
2023-04-16T07:20:00.430Z,918
2023-04-16T07:22:48.157Z,929
2023-04-16T07:25:35.948Z,939
2023-04-16T07:28:23.770Z,934
2023-04-16T07:31:11.468Z,935
2023-04-16T07:33:59.370Z,935
2023-04-16T07:36:47.175Z,947
2023-04-16T07:39:34.902Z,943
2023-04-16T07:42:22.640Z,955
2023-04-16T07:45:10.468Z,956
2023-04-16T07:47:59.721Z,958
2023-04-16T07:50:47.449Z,953
2023-04-16T07:53:35.265Z,964
2023-04-16T07:56:23.169Z,954
2023-04-16T07:59:21.560Z,961
2023-04-16T08:02:10.458Z,960
2023-04-16T08:04:58.599Z,958
2023-04-16T08:07:46.948Z,958
2023-04-16T08:10:34.755Z,953
2023-04-16T08:13:22.485Z,958
2023-04-16T08:16:10.093Z,961
2023-04-16T08:18:57.852Z,968
2023-04-16T08:21:45.636Z,967
2023-04-16T08:24:33.390Z,970
2023-04-16T08:27:21.205Z,968
2023-04-16T08:30:09.083Z,964
2023-04-16T08:32:56.782Z,962
2023-04-16T08:35:44.707Z,963
2023-04-16T08:38:32.384Z,965
2023-04-16T08:41:20.460Z,947
2023-04-16T08:44:08.372Z,955
2023-04-16T08:46:56.341Z,975
2023-04-16T08:49:44.280Z,984
2023-04-16T08:52:32.062Z,965
2023-04-16T08:55:20.463Z,954
2023-04-16T08:58:08.267Z,965
2023-04-16T09:00:56.025Z,955
2023-04-16T09:03:44.041Z,959
2023-04-16T09:06:32.364Z,955
2023-04-16T09:09:20.088Z,945
2023-04-16T09:12:07.773Z,950
2023-04-16T09:14:55.534Z,957
2023-04-16T09:17:43.300Z,952
2023-04-16T09:20:31.125Z,959
2023-04-16T09:23:18.708Z,971
2023-04-16T09:26:06.461Z,964
2023-04-16T09:28:54.195Z,976
2023-04-16T09:31:42.109Z,977
2023-04-16T09:34:30.317Z,979
2023-04-16T09:37:18.029Z,979
2023-04-16T09:40:05.513Z,970
2023-04-16T09:42:53.186Z,970
2023-04-16T09:45:40.883Z,972
2023-04-16T09:48:28.725Z,976
2023-04-16T09:51:16.430Z,983
2023-04-16T09:54:04.529Z,992
2023-04-16T09:56:52.239Z,994
2023-04-16T09:59:39.989Z,993
2023-04-16T10:02:27.660Z,978
2023-04-16T10:05:15.736Z,970
2023-04-16T10:08:03.594Z,985
2023-04-16T10:10:51.482Z,985
2023-04-16T10:13:39.261Z,984
2023-04-16T10:16:27.096Z,978
2023-04-16T10:19:15.084Z,987
2023-04-16T10:22:03.007Z,977
2023-04-16T10:24:50.691Z,987
2023-04-16T10:27:38.472Z,982
2023-04-16T10:30:26.265Z,992
2023-04-16T10:33:14.167Z,978
2023-04-16T10:36:07.215Z,987
2023-04-16T10:38:55.450Z,990
2023-04-16T10:41:43.191Z,978
2023-04-16T10:44:31.118Z,980
2023-04-16T10:47:18.722Z,980
2023-04-16T10:50:06.750Z,983
2023-04-16T10:52:54.394Z,985
2023-04-16T10:55:42.189Z,991
2023-04-16T10:58:30.000Z,983
2023-04-16T11:01:17.770Z,999
2023-04-16T11:04:05.745Z,996
2023-04-16T11:06:54.068Z,989
2023-04-16T11:09:41.874Z,980
2023-04-16T11:12:29.600Z,991
2023-04-16T11:15:17.503Z,983
2023-04-16T11:18:05.297Z,987
2023-04-16T11:20:53.072Z,987
2023-04-16T11:23:40.658Z,984
2023-04-16T11:26:28.295Z,978
2023-04-16T11:29:16.058Z,992
2023-04-16T11:32:07.023Z,986
2023-04-16T11:34:54.956Z,987
2023-04-16T11:37:42.580Z,986
2023-04-16T11:40:30.264Z,981
2023-04-16T11:43:17.969Z,972
2023-04-16T11:46:16.539Z,983
2023-04-16T11:49:08.210Z,983
2023-04-16T11:51:55.910Z,992
2023-04-16T11:54:43.615Z,991
2023-04-16T11:57:31.399Z,984
2023-04-16T12:00:18.931Z,978
2023-04-16T12:03:10.863Z,983
2023-04-16T12:05:59.760Z,985
2023-04-16T12:08:47.456Z,989
2023-04-16T12:11:35.075Z,972
2023-04-16T12:14:22.698Z,966
2023-04-16T12:17:10.527Z,982
2023-04-16T12:19:58.636Z,986
2023-04-16T12:22:46.524Z,989
2023-04-16T12:25:34.256Z,994
2023-04-16T12:28:22.497Z,988
2023-04-16T12:31:10.174Z,994
2023-04-16T12:33:57.912Z,991
2023-04-16T12:37:09.062Z,990
2023-04-16T12:39:56.819Z,984
2023-04-16T12:42:44.459Z,969
2023-04-16T12:45:32.140Z,985
2023-04-16T12:48:23.634Z,978
2023-04-16T12:51:11.389Z,973
2023-04-16T12:53:59.140Z,961
2023-04-16T12:56:46.801Z,965
2023-04-16T12:59:34.464Z,968
2023-04-16T13:02:22.251Z,975
2023-04-16T13:05:10.542Z,978
2023-04-16T13:07:58.092Z,970
2023-04-16T13:10:45.686Z,987
2023-04-16T13:13:33.454Z,984
2023-04-16T13:16:21.260Z,982
2023-04-16T13:19:09.177Z,970
2023-04-16T13:21:57.055Z,978
2023-04-16T13:24:44.684Z,978
2023-04-16T13:27:32.490Z,975
2023-04-16T13:30:20.279Z,970
2023-04-16T13:33:08.120Z,977
2023-04-16T13:35:55.995Z,977
2023-04-16T13:38:47.332Z,983
2023-04-16T13:41:35.070Z,973
2023-04-16T13:44:22.973Z,974
2023-04-16T13:47:10.580Z,978
2023-04-16T13:49:58.520Z,975
2023-04-16T13:52:46.096Z,984
2023-04-16T13:55:33.882Z,978
2023-04-16T13:58:21.457Z,975
2023-04-16T14:01:09.299Z,984
2023-04-16T14:03:57.164Z,982
2023-04-16T14:06:45.112Z,981
2023-04-16T14:09:32.721Z,979
2023-04-16T14:12:20.440Z,984
2023-04-16T14:15:07.947Z,975
2023-04-16T14:17:55.722Z,984
2023-04-16T14:20:43.462Z,966
2023-04-16T14:23:31.148Z,966
2023-04-16T14:26:18.736Z,970
2023-04-16T14:29:06.468Z,967
2023-04-16T14:31:54.315Z,968
2023-04-16T14:34:42.210Z,960
2023-04-16T14:37:30.009Z,963
2023-04-16T14:40:17.844Z,963
2023-04-16T14:43:05.574Z,962
2023-04-16T14:45:53.375Z,965
2023-04-16T14:48:41.352Z,970
2023-04-16T14:51:32.122Z,974
2023-04-16T14:54:19.726Z,963
2023-04-16T14:57:07.495Z,945
2023-04-16T14:59:55.194Z,926
2023-04-16T15:02:43.043Z,912
2023-04-16T15:05:31.171Z,890
2023-04-16T15:08:19.078Z,868
2023-04-16T15:11:06.733Z,880
2023-04-16T15:13:54.475Z,899
2023-04-16T15:16:42.093Z,914
2023-04-16T15:19:30.191Z,931
2023-04-16T15:22:17.771Z,932
2023-04-16T15:25:05.540Z,934
2023-04-16T15:27:53.485Z,934
2023-04-16T15:30:41.078Z,940
2023-04-16T15:33:28.909Z,944
2023-04-16T15:36:18.771Z,941
2023-04-16T15:39:06.516Z,937
2023-04-16T15:42:01.090Z,921
2023-04-16T15:44:49.198Z,905
2023-04-16T15:47:37.549Z,886
2023-04-16T15:50:26.668Z,844
2023-04-16T15:53:14.493Z,817
2023-04-16T15:56:02.062Z,796
2023-04-16T15:58:49.834Z,819
2023-04-16T16:01:37.738Z,849
2023-04-16T16:04:25.884Z,902
2023-04-16T16:07:13.768Z,926
2023-04-16T16:10:01.743Z,920
2023-04-16T16:12:49.499Z,912
2023-04-16T16:15:37.294Z,926
2023-04-16T16:18:25.119Z,909
2023-04-16T16:21:12.841Z,908
2023-04-16T16:24:00.420Z,914
2023-04-16T16:26:48.147Z,915
2023-04-16T16:29:35.840Z,917
2023-04-16T16:32:23.620Z,900
2023-04-16T16:35:11.605Z,886
2023-04-16T16:37:59.226Z,872
2023-04-16T16:40:46.822Z,858
2023-04-16T16:43:34.639Z,842
2023-04-16T16:46:22.335Z,844
2023-04-16T16:49:10.664Z,861
2023-04-16T16:51:58.756Z,853
2023-04-16T16:54:46.601Z,843
2023-04-16T16:57:36.966Z,832
2023-04-16T17:00:24.674Z,833
2023-04-16T17:03:12.642Z,828
2023-04-16T17:06:01.051Z,804
2023-04-16T17:08:49.045Z,792
2023-04-16T17:11:36.932Z,828
2023-04-16T17:14:24.559Z,819
2023-04-16T17:17:12.339Z,829
2023-04-16T17:20:00.091Z,858
2023-04-16T17:22:49.062Z,863
2023-04-16T17:25:36.825Z,860
2023-04-16T17:28:24.654Z,846
2023-04-16T17:31:12.437Z,845
2023-04-16T17:34:00.635Z,827
2023-04-16T17:36:48.375Z,842
2023-04-16T17:39:36.177Z,835
2023-04-16T17:42:23.823Z,825
2023-04-16T17:45:11.615Z,816
2023-04-16T17:47:59.456Z,802
2023-04-16T17:50:47.235Z,802
2023-04-16T17:53:35.062Z,790
2023-04-16T17:56:22.763Z,763
2023-04-16T17:59:10.478Z,744
2023-04-16T18:01:58.185Z,737
2023-04-16T18:04:46.773Z,711
2023-04-16T18:07:34.792Z,686
2023-04-16T18:10:22.482Z,670
2023-04-16T18:13:10.247Z,654
2023-04-16T18:15:58.185Z,643
2023-04-16T18:18:46.233Z,613
2023-04-16T18:21:33.916Z,591
2023-04-16T18:24:21.805Z,556
2023-04-16T18:27:09.994Z,512
2023-04-16T18:29:57.742Z,458
2023-04-16T18:33:00.071Z,401
2023-04-16T18:36:17.729Z,332
2023-04-16T18:39:05.411Z,286
2023-04-16T18:41:53.186Z,225
2023-04-16T18:44:40.919Z,172
2023-04-16T18:47:29.529Z,126
2023-04-16T18:50:17.576Z,93
2023-04-16T18:53:05.408Z,48
2023-04-16T18:55:53.105Z,39
2023-04-16T18:58:40.759Z,30
2023-04-16T19:01:29.191Z,30
2023-04-16T19:04:17.251Z,32
2023-04-16T19:07:05.062Z,20
2023-04-16T19:09:52.915Z,16
2023-04-16T19:12:40.549Z,16
2023-04-16T19:15:30.714Z,6
2023-04-16T19:18:19.441Z,13
2023-04-16T19:21:07.316Z,14
2023-04-16T19:23:55.374Z,20
2023-04-16T19:26:43.137Z,19
2023-04-16T19:29:30.889Z,18
2023-04-16T19:32:18.614Z,18
2023-04-16T19:35:06.403Z,19
2023-04-16T19:37:54.120Z,19
2023-04-16T19:40:42.017Z,15
2023-04-16T19:43:30.671Z,15
2023-04-16T19:46:18.742Z,18
2023-04-16T19:49:06.595Z,18
2023-04-16T19:51:54.533Z,20
2023-04-16T19:54:42.394Z,22
2023-04-16T19:57:30.035Z,29
2023-04-16T20:00:18.043Z,23
2023-04-16T20:03:05.776Z,23
2023-04-16T20:05:54.009Z,16
2023-04-16T20:08:41.778Z,14
2023-04-16T20:11:30.066Z,19
2023-04-16T20:14:17.862Z,21
2023-04-16T20:17:05.652Z,24
2023-04-16T20:19:53.667Z,16
2023-04-16T20:22:41.381Z,20
2023-04-16T20:25:29.104Z,21
2023-04-16T20:28:16.811Z,19
2023-04-16T20:31:04.716Z,27
2023-04-16T20:34:05.304Z,17
2023-04-16T20:36:52.988Z,9
2023-04-16T20:39:40.773Z,20
2023-04-16T20:42:28.497Z,35
2023-04-16T20:45:16.416Z,25
2023-04-16T20:48:04.226Z,22
2023-04-16T20:50:52.004Z,18
2023-04-16T20:53:39.793Z,22
2023-04-16T20:56:27.568Z,7
2023-04-16T20:59:15.252Z,17
2023-04-16T21:02:03.213Z,17
2023-04-16T21:04:54.056Z,14
2023-04-16T21:07:41.884Z,8
2023-04-16T21:10:29.659Z,16
2023-04-16T21:13:17.652Z,14
2023-04-16T21:16:05.276Z,20
2023-04-16T21:18:53.392Z,19
2023-04-16T21:21:41.156Z,24
2023-04-16T21:24:28.989Z,22
2023-04-16T21:27:16.786Z,26
2023-04-16T21:30:04.653Z,15
2023-04-16T21:32:52.489Z,23
2023-04-16T21:35:40.298Z,22
2023-04-16T21:38:28.161Z,27
2023-04-16T21:41:15.895Z,11
2023-04-16T21:44:03.582Z,14
2023-04-16T21:46:51.449Z,24
2023-04-16T21:49:39.362Z,25
2023-04-16T21:52:27.179Z,19
2023-04-16T21:55:14.911Z,23
2023-04-16T21:58:02.726Z,20
2023-04-16T22:00:50.382Z,16
2023-04-16T22:03:38.486Z,13
2023-04-16T22:06:26.402Z,18
2023-04-16T22:09:14.491Z,17
2023-04-16T22:12:02.185Z,18
2023-04-16T22:15:01.772Z,23
2023-04-16T22:17:49.695Z,21
2023-04-16T22:20:37.414Z,17
2023-04-16T22:23:25.005Z,14
2023-04-16T22:26:12.871Z,8
2023-04-16T22:29:00.665Z,23
2023-04-16T22:31:48.602Z,19
2023-04-16T22:34:36.861Z,23
2023-04-16T22:37:24.711Z,18
2023-04-16T22:40:12.609Z,14
2023-04-16T22:43:00.473Z,11
2023-04-16T22:45:48.232Z,11
2023-04-16T22:48:36.082Z,16
2023-04-16T22:51:23.835Z,22
2023-04-16T22:54:13.738Z,13
2023-04-16T22:57:01.570Z,22
2023-04-16T22:59:49.217Z,22
2023-04-16T23:02:37.229Z,25
2023-04-16T23:05:25.521Z,16
2023-04-16T23:08:13.302Z,19
2023-04-16T23:11:01.133Z,22
2023-04-16T23:13:48.793Z,17
2023-04-16T23:16:36.645Z,7
2023-04-16T23:19:24.377Z,25
2023-04-16T23:22:12.176Z,22
2023-04-16T23:24:59.771Z,24
2023-04-16T23:27:47.527Z,24
2023-04-16T23:30:35.070Z,19
2023-04-16T23:33:26.800Z,24
2023-04-16T23:36:14.588Z,24
2023-04-16T23:39:02.391Z,12
2023-04-16T23:41:50.122Z,25
2023-04-16T23:44:38.012Z,18
2023-04-16T23:47:25.720Z,11
2023-04-16T23:50:13.709Z,10
2023-04-16T23:53:01.466Z,40
2023-04-16T23:55:49.251Z,14
2023-04-16T23:58:36.824Z,9
